Time;durP1;ratioP1;P1;durP2;ratioP2;P2;SDS_P1;SDS_P2;PMS_P1;PMS_P2;Temp;Humidity;BMP_temperature;BMP_pressure;BME280_temperature;BME280_humidity;BME280_pressure;Samples;Min_cycle;Max_cycle;Signal;HPM_P1;HPM_P2
2023/02/06 00:00:52;;;;;;;5.00;4.27;;;5.20;81.40;;;;;;5038817;28;20210;-66
2023/02/06 00:03:19;;;;;;;6.93;3.73;;;5.20;81.40;;;;;;5028983;28;20250;-66
2023/02/06 00:05:59;;;;;;;8.17;4.20;;;5.20;81.50;;;;;;5038922;28;20285;-65
2023/02/06 00:08:27;;;;;;;8.10;4.37;;;5.20;81.60;;;;;;5033364;28;20211;-66
2023/02/06 00:10:54;;;;;;;6.33;4.07;;;5.20;81.60;;;;;;5036095;28;20212;-66
2023/02/06 00:13:21;;;;;;;6.97;4.40;;;5.20;81.70;;;;;;5024135;28;20568;-66
2023/02/06 00:15:48;;;;;;;6.13;4.23;;;5.10;81.80;;;;;;5038995;28;20256;-66
2023/02/06 00:18:16;;;;;;;5.20;4.23;;;5.10;82.00;;;;;;5039827;28;20289;-66
2023/02/06 00:20:42;;;;;;;8.03;4.57;;;5.10;82.10;;;;;;5036725;28;20213;-66
2023/02/06 00:23:09;;;;;;;5.80;3.80;;;5.10;82.00;;;;;;5035753;28;20228;-66
2023/02/06 00:25:36;;;;;;;8.97;4.50;;;5.10;82.00;;;;;;5037987;28;20284;-66
2023/02/06 00:28:04;;;;;;;9.63;4.47;;;5.10;82.10;;;;;;5040013;28;20207;-66
2023/02/06 00:30:31;;;;;;;7.47;4.40;;;5.00;82.10;;;;;;5035942;28;20203;-66
2023/02/06 00:32:58;;;;;;;11.27;4.50;;;5.00;82.00;;;;;;5036210;28;20288;-70
2023/02/06 00:35:27;;;;;;;5.00;4.20;;;5.10;82.20;;;;;;5041434;28;20197;-66
2023/02/06 00:37:54;;;;;;;6.60;4.77;;;5.10;82.10;;;;;;5041395;28;20202;-66
2023/02/06 00:40:21;;;;;;;6.17;4.23;;;5.10;82.10;;;;;;5033664;28;20253;-65
2023/02/06 00:42:48;;;;;;;9.93;4.73;;;5.10;82.00;;;;;;5032553;28;20268;-65
2023/02/06 00:45:14;;;;;;;6.77;3.83;;;5.10;82.10;;;;;;5038300;28;20215;-66
2023/02/06 00:47:41;;;;;;;5.60;4.23;;;5.10;82.10;;;;;;5033486;28;20211;-65
2023/02/06 00:50:09;;;;;;;6.87;4.73;;;5.10;82.00;;;;;;5036535;28;20593;-65
2023/02/06 00:52:36;;;;;;;7.60;4.80;;;5.10;81.90;;;;;;5033862;28;20199;-66
2023/02/06 00:55:04;;;;;;;5.17;3.73;;;5.10;82.10;;;;;;5035936;28;20217;-67
2023/02/06 00:57:31;;;;;;;10.93;4.83;;;5.10;82.10;;;;;;5037420;28;20245;-66
2023/02/06 00:59:58;;;;;;;5.00;4.10;;;5.10;82.10;;;;;;5024060;28;20655;-70
2023/02/06 01:02:25;;;;;;;7.33;3.83;;;5.10;82.10;;;;;;5037922;28;20314;-65
2023/02/06 01:04:52;;;;;;;5.80;4.10;;;5.00;82.20;;;;;;5031911;28;20555;-65
2023/02/06 01:07:19;;;;;;;7.77;4.43;;;5.00;82.20;;;;;;5044116;28;20221;-65
2023/02/06 01:09:46;;;;;;;10.00;4.47;;;4.90;82.20;;;;;;5030600;28;20211;-66
2023/02/06 01:12:13;;;;;;;10.63;5.20;;;4.90;82.20;;;;;;5034583;28;20567;-65
2023/02/06 01:14:40;;;;;;;6.30;4.30;;;4.90;82.40;;;;;;5031553;28;20217;-66
2023/02/06 01:17:10;;;;;;;7.20;4.70;;;4.90;82.30;;;;;;5036443;28;20665;-67
2023/02/06 01:19:37;;;;;;;6.87;5.00;;;4.90;82.30;;;;;;5035013;28;20291;-68
2023/02/06 01:22:05;;;;;;;6.70;5.33;;;4.90;82.30;;;;;;5031192;28;20207;-66
2023/02/06 01:24:34;;;;;;;9.00;6.03;;;5.00;82.30;;;;;;5034203;28;20218;-66
2023/02/06 01:27:02;;;;;;;6.60;4.80;;;5.00;82.40;;;;;;5041432;28;20293;-66
2023/02/06 01:29:29;;;;;;;8.13;5.50;;;5.00;82.40;;;;;;5035259;28;20203;-66
2023/02/06 01:31:56;;;;;;;11.30;6.30;;;5.00;82.60;;;;;;5042402;28;20286;-66
2023/02/06 01:34:23;;;;;;;8.20;5.67;;;5.00;82.70;;;;;;5037568;28;20588;-66
2023/02/06 01:36:50;;;;;;;7.93;6.33;;;5.00;82.90;;;;;;5037892;28;20712;-65
2023/02/06 01:39:17;;;;;;;10.97;6.10;;;5.00;82.80;;;;;;5033881;28;20210;-66
2023/02/06 01:41:45;;;;;;;8.73;6.30;;;5.00;82.80;;;;;;5035315;28;20531;-65
2023/02/06 01:44:21;;;;;;;8.03;6.70;;;5.00;82.90;;;;;;5037357;28;20235;-66
2023/02/06 01:46:53;;;;;;;9.77;6.50;;;4.90;83.00;;;;;;5018968;28;20257;-66
2023/02/06 01:49:34;;;;;;;10.27;6.60;;;4.90;83.10;;;;;;5038338;28;20260;-66
2023/02/06 01:52:16;;;;;;;8.93;6.50;;;5.00;83.30;;;;;;5035757;28;20199;-66
2023/02/06 01:54:48;;;;;;;7.30;5.77;;;5.00;83.50;;;;;;5025923;28;20204;-65
2023/02/06 01:57:16;;;;;;;9.23;6.50;;;5.00;83.70;;;;;;5037260;28;20202;-66
2023/02/06 01:59:48;;;;;;;12.97;7.10;;;5.00;83.70;;;;;;5030443;28;20584;-66
2023/02/06 02:02:15;;;;;;;11.50;7.17;;;5.00;83.80;;;;;;5039625;28;20612;-65
2023/02/06 02:04:43;;;;;;;9.47;7.17;;;5.00;83.70;;;;;;5035710;28;20274;-66
2023/02/06 02:07:21;;;;;;;9.93;6.93;;;5.00;83.70;;;;;;5020345;28;20203;-66
2023/02/06 02:09:48;;;;;;;10.17;7.30;;;5.00;83.70;;;;;;5031880;28;20202;-66
2023/02/06 02:12:16;;;;;;;11.93;7.50;;;5.10;83.80;;;;;;5041879;28;20211;-66
2023/02/06 02:14:44;;;;;;;11.73;7.07;;;5.10;83.70;;;;;;5039889;28;20632;-66
2023/02/06 02:17:27;;;;;;;11.60;7.63;;;5.10;83.70;;;;;;5032122;28;20211;-66
2023/02/06 02:20:31;;;;;;;10.07;7.37;;;5.10;83.70;;;;;;5030306;28;20215;-66
2023/02/06 02:23:13;;;;;;;12.27;7.80;;;5.00;83.60;;;;;;5042106;28;20197;-65
2023/02/06 02:25:40;;;;;;;14.40;7.50;;;5.00;83.70;;;;;;5050598;28;20254;-66
2023/02/06 02:28:26;;;;;;;9.90;7.33;;;5.00;83.70;;;;;;5036391;28;20191;-65
2023/02/06 02:31:08;;;;;;;15.13;8.67;;;5.00;83.80;;;;;;5038940;28;20212;-66
2023/02/06 02:34:12;;;;;;;11.53;8.40;;;4.90;83.80;;;;;;5034531;28;20286;-65
2023/02/06 02:36:50;;;;;;;15.60;8.40;;;4.80;83.90;;;;;;5034557;28;20203;-65
2023/02/06 02:39:33;;;;;;;13.53;8.53;;;4.80;84.10;;;;;;5035983;28;20204;-65
2023/02/06 02:42:12;;;;;;;12.37;8.67;;;4.70;84.30;;;;;;5037573;28;20297;-66
2023/02/06 02:45:10;;;;;;;12.43;8.87;;;4.50;84.60;;;;;;5017573;28;20226;-65
2023/02/06 02:48:05;;;;;;;15.00;9.80;;;4.50;85.00;;;;;;5028826;28;20211;-66
2023/02/06 02:50:33;;;;;;;12.27;9.37;;;4.40;85.40;;;;;;5038584;28;20225;-65
2023/02/06 02:53:02;;;;;;;14.47;9.53;;;4.30;85.60;;;;;;5041510;28;20212;-65
2023/02/06 02:55:29;;;;;;;18.53;9.87;;;4.30;85.60;;;;;;5026468;28;20210;-66
2023/02/06 02:58:10;;;;;;;13.37;9.47;;;4.20;85.80;;;;;;5036478;28;20500;-66
2023/02/06 03:00:43;;;;;;;12.33;9.43;;;4.20;85.90;;;;;;5042188;28;20202;-65
2023/02/06 03:03:13;;;;;;;13.80;9.80;;;4.20;86.00;;;;;;5036402;28;20207;-66
2023/02/06 03:06:05;;;;;;;14.83;9.63;;;4.10;86.10;;;;;;5035890;28;20298;-65
2023/02/06 03:08:50;;;;;;;15.83;10.20;;;4.10;86.20;;;;;;5029141;28;20202;-66
2023/02/06 03:11:22;;;;;;;15.27;9.47;;;4.10;86.30;;;;;;5031024;28;20198;-66
2023/02/06 03:14:33;;;;;;;16.30;10.77;;;4.10;86.70;;;;;;5040317;28;20198;-66
2023/02/06 03:17:05;;;;;;;12.43;10.23;;;4.00;86.70;;;;;;5032233;28;20222;-66
2023/02/06 03:19:38;;;;;;;13.37;10.47;;;4.00;86.80;;;;;;5040870;28;20579;-65
2023/02/06 03:22:05;;;;;;;15.90;10.73;;;4.00;87.00;;;;;;5026848;28;20210;-66
2023/02/06 03:24:36;;;;;;;14.57;11.20;;;3.90;87.00;;;;;;5042574;28;20274;-66
2023/02/06 03:27:09;;;;;;;18.80;11.00;;;3.90;87.00;;;;;;5035726;28;20202;-65
2023/02/06 03:29:40;;;;;;;18.47;12.17;;;3.90;87.10;;;;;;5037964;28;20238;-65
2023/02/06 03:32:14;;;;;;;17.83;11.30;;;3.80;87.10;;;;;;5036689;28;20203;-67
2023/02/06 03:34:52;;;;;;;15.60;11.73;;;3.80;87.10;;;;;;5030313;28;20202;-65
2023/02/06 03:37:20;;;;;;;13.47;10.13;;;3.70;86.70;;;;;;5035693;28;20210;-65
2023/02/06 03:39:47;;;;;;;12.60;10.00;;;3.70;86.50;;;;;;5035016;28;20200;-66
2023/02/06 03:42:16;;;;;;;15.03;9.50;;;3.60;86.50;;;;;;5039421;28;20221;-66
2023/02/06 03:44:56;;;;;;;14.70;9.90;;;3.60;87.20;;;;;;5043678;28;20245;-65
2023/02/06 03:47:25;;;;;;;12.57;10.17;;;3.50;86.50;;;;;;5034631;28;20577;-65
2023/02/06 03:49:56;;;;;;;14.37;10.27;;;3.40;86.30;;;;;;5036808;28;20218;-66
2023/02/06 03:52:27;;;;;;;16.60;9.60;;;3.40;86.40;;;;;;5032408;28;20262;-66
2023/02/06 03:55:01;;;;;;;16.50;10.40;;;3.30;86.50;;;;;;5034323;28;20222;-65
2023/02/06 03:57:31;;;;;;;13.60;9.90;;;3.20;86.60;;;;;;5034696;28;20585;-65
2023/02/06 03:59:58;;;;;;;16.40;12.13;;;3.20;86.80;;;;;;5035487;28;20210;-65
2023/02/06 04:02:26;;;;;;;11.90;9.43;;;3.20;87.00;;;;;;5039742;28;20544;-65
2023/02/06 04:04:53;;;;;;;14.27;11.03;;;3.20;87.20;;;;;;5030726;28;20302;-66
2023/02/06 04:07:28;;;;;;;12.90;10.10;;;3.20;87.30;;;;;;5037103;28;20210;-65
2023/02/06 04:09:55;;;;;;;15.93;10.53;;;3.20;87.50;;;;;;5038170;28;20202;-66
2023/02/06 04:12:23;;;;;;;17.53;11.20;;;3.10;87.50;;;;;;5034576;28;20210;-66
2023/02/06 04:14:51;;;;;;;19.67;12.33;;;3.10;87.60;;;;;;5041561;28;20202;-66
2023/02/06 04:17:19;;;;;;;14.67;10.70;;;3.10;87.70;;;;;;5037873;28;20207;-66
2023/02/06 04:20:06;;;;;;;14.23;9.00;;;3.10;87.80;;;;;;5030663;28;20586;-66
2023/02/06 04:22:33;;;;;;;11.57;9.43;;;3.10;87.80;;;;;;5033317;28;20215;-65
2023/02/06 04:25:00;;;;;;;12.20;8.57;;;3.10;87.60;;;;;;5038805;28;20227;-65
2023/02/06 04:27:27;;;;;;;13.17;9.67;;;3.10;87.60;;;;;;5035507;28;20209;-65
2023/02/06 04:29:54;;;;;;;14.00;10.40;;;3.00;87.40;;;;;;5034500;28;20198;-65
2023/02/06 04:32:21;;;;;;;16.10;10.77;;;2.90;87.20;;;;;;5033099;28;20198;-65
2023/02/06 04:34:48;;;;;;;16.67;10.83;;;2.90;87.20;;;;;;5033973;28;20643;-66
2023/02/06 04:37:15;;;;;;;15.90;10.40;;;2.80;86.90;;;;;;5037534;28;20208;-68
2023/02/06 04:39:42;;;;;;;16.97;11.40;;;2.80;86.80;;;;;;5034826;28;20202;-65
2023/02/06 04:42:09;;;;;;;16.27;11.47;;;2.70;86.90;;;;;;5035904;28;20229;-65
2023/02/06 04:44:37;;;;;;;14.60;11.30;;;2.60;87.10;;;;;;5037554;28;20202;-66
2023/02/06 04:47:05;;;;;;;16.83;12.33;;;2.60;87.60;;;;;;5030258;28;20203;-66
2023/02/06 04:49:32;;;;;;;17.70;12.20;;;2.60;88.00;;;;;;5037697;28;20204;-65
2023/02/06 04:51:59;;;;;;;18.40;12.27;;;2.60;88.40;;;;;;5032789;28;20547;-65
2023/02/06 04:54:26;;;;;;;17.10;11.73;;;2.60;88.60;;;;;;5038911;28;20205;-65
2023/02/06 04:56:53;;;;;;;17.03;11.77;;;2.60;88.70;;;;;;5037125;28;20550;-66
2023/02/06 04:59:20;;;;;;;22.83;13.77;;;2.60;88.80;;;;;;5035651;28;20340;-65
2023/02/06 05:01:47;;;;;;;16.37;12.37;;;2.60;88.90;;;;;;5035479;28;20202;-65
2023/02/06 05:04:14;;;;;;;17.13;11.33;;;2.60;89.10;;;;;;5031957;28;20202;-65
2023/02/06 05:06:41;;;;;;;21.73;12.97;;;2.60;89.30;;;;;;5043231;28;20750;-65
2023/02/06 05:09:08;;;;;;;18.63;12.20;;;2.60;89.30;;;;;;5036632;28;20276;-65
2023/02/06 05:11:35;;;;;;;20.20;12.57;;;2.50;89.30;;;;;;5037995;28;20202;-66
2023/02/06 05:14:02;;;;;;;24.10;13.03;;;2.60;89.30;;;;;;5036285;28;20199;-65
2023/02/06 05:16:29;;;;;;;17.33;12.03;;;2.60;89.70;;;;;;5036415;28;20207;-65
2023/02/06 05:18:57;;;;;;;15.97;11.63;;;2.60;89.90;;;;;;5039069;28;20213;-65
2023/02/06 05:21:24;;;;;;;18.77;9.97;;;2.70;90.00;;;;;;5034019;28;20232;-65
2023/02/06 05:23:51;;;;;;;18.10;11.30;;;2.70;89.80;;;;;;5031352;28;20216;-67
2023/02/06 05:26:19;;;;;;;15.83;11.13;;;2.70;89.40;;;;;;5038260;28;20214;-65
2023/02/06 05:28:46;;;;;;;19.63;11.47;;;2.70;89.10;;;;;;5027580;28;20217;-66
2023/02/06 05:31:18;;;;;;;14.80;10.50;;;2.70;89.10;;;;;;5034586;28;20197;-65
2023/02/06 05:33:47;;;;;;;14.70;10.23;;;2.80;89.10;;;;;;5027796;28;20284;-66
2023/02/06 05:36:18;;;;;;;13.83;9.97;;;2.70;88.90;;;;;;5034616;28;20217;-65
2023/02/06 05:38:46;;;;;;;16.80;9.30;;;2.80;88.90;;;;;;5036589;28;20600;-65
2023/02/06 05:41:14;;;;;;;12.43;9.03;;;2.80;88.80;;;;;;5035422;28;20209;-65
2023/02/06 05:43:41;;;;;;;14.87;9.53;;;2.80;88.80;;;;;;5037365;28;20211;-65
2023/02/06 05:46:10;;;;;;;10.63;9.40;;;2.80;88.90;;;;;;5035734;28;20214;-65
2023/02/06 05:48:37;;;;;;;14.20;8.70;;;2.90;89.00;;;;;;5034715;28;20220;-65
2023/02/06 05:51:04;;;;;;;14.53;9.00;;;2.90;89.00;;;;;;5026653;28;20277;-65
2023/02/06 05:53:31;;;;;;;11.67;7.90;;;3.00;89.00;;;;;;5029576;28;20236;-65
2023/02/06 05:55:58;;;;;;;15.47;8.23;;;3.00;89.00;;;;;;5039819;28;20210;-65
2023/02/06 05:58:25;;;;;;;11.87;8.13;;;3.10;89.00;;;;;;5034500;28;20205;-65
2023/02/06 06:00:52;;;;;;;12.87;8.80;;;3.10;88.90;;;;;;5036563;28;20683;-65
2023/02/06 06:03:19;;;;;;;11.20;8.87;;;3.10;88.60;;;;;;5034628;28;20594;-66
2023/02/06 06:05:47;;;;;;;12.00;8.40;;;3.10;88.30;;;;;;5037237;28;20242;-65
2023/02/06 06:08:14;;;;;;;13.00;9.13;;;3.10;87.90;;;;;;5034199;28;20197;-65
2023/02/06 06:10:41;;;;;;;11.43;7.80;;;3.10;87.50;;;;;;5036352;28;20206;-66
2023/02/06 06:13:08;;;;;;;11.43;8.43;;;3.10;87.40;;;;;;5037647;28;20212;-65
2023/02/06 06:15:36;;;;;;;12.20;7.93;;;3.10;88.00;;;;;;5034712;28;20255;-65
2023/02/06 06:18:03;;;;;;;16.30;9.03;;;3.10;87.40;;;;;;5038590;28;20289;-65
2023/02/06 06:20:30;;;;;;;15.37;8.87;;;3.10;87.50;;;;;;5030516;28;20213;-65
2023/02/06 06:22:57;;;;;;;14.60;8.83;;;3.10;87.50;;;;;;5034609;28;20328;-66
2023/02/06 06:25:24;;;;;;;14.40;8.97;;;3.00;87.50;;;;;;5041364;28;20214;-65
2023/02/06 06:27:51;;;;;;;12.40;8.77;;;3.00;87.60;;;;;;5041133;28;20209;-67
2023/02/06 06:30:18;;;;;;;14.33;8.70;;;3.00;87.60;;;;;;5041553;28;20288;-66
2023/02/06 06:32:45;;;;;;;14.00;7.93;;;3.00;87.60;;;;;;5040981;28;20205;-65
2023/02/06 06:35:12;;;;;;;14.07;8.73;;;3.00;87.60;;;;;;5038001;28;20229;-66
2023/02/06 06:37:39;;;;;;;13.00;8.80;;;3.00;87.50;;;;;;5036097;28;20208;-65
2023/02/06 06:40:07;;;;;;;14.93;8.13;;;2.90;87.40;;;;;;5031763;28;20205;-65
2023/02/06 06:42:34;;;;;;;11.80;8.70;;;2.90;87.40;;;;;;5038994;28;20202;-65
2023/02/06 06:45:01;;;;;;;12.53;8.70;;;2.80;87.30;;;;;;5034914;28;20579;-65
2023/02/06 06:47:28;;;;;;;11.80;8.70;;;2.80;87.20;;;;;;5036880;28;20214;-65
2023/02/06 06:49:55;;;;;;;12.37;9.20;;;2.70;87.20;;;;;;5039812;28;20194;-65
2023/02/06 06:52:22;;;;;;;11.53;7.83;;;2.70;87.60;;;;;;5040443;28;20202;-65
2023/02/06 06:54:52;;;;;;;10.10;8.27;;;2.70;87.80;;;;;;5039243;28;20569;-65
2023/02/06 06:57:20;;;;;;;14.17;10.03;;;2.80;87.60;;;;;;5038141;28;20207;-65
2023/02/06 06:59:48;;;;;;;14.33;9.00;;;2.80;87.40;;;;;;5044077;28;20584;-65
2023/02/06 07:02:16;;;;;;;8.40;7.40;;;2.90;87.60;;;;;;5036838;28;20204;-65
2023/02/06 07:04:43;;;;;;;13.07;9.20;;;3.10;87.40;;;;;;5037895;28;20592;-66
2023/02/06 07:07:10;;;;;;;13.20;7.87;;;3.20;87.00;;;;;;5039241;28;20208;-65
2023/02/06 07:09:37;;;;;;;16.37;8.47;;;3.50;86.30;;;;;;5034464;28;20236;-65
2023/02/06 07:12:04;;;;;;;13.50;8.97;;;3.70;85.10;;;;;;5040069;28;20198;-65
2023/02/06 07:14:31;;;;;;;12.03;8.53;;;3.90;83.90;;;;;;5036144;28;20201;-65
2023/02/06 07:17:00;;;;;;;13.37;8.63;;;3.90;83.30;;;;;;5033529;28;20260;-65
2023/02/06 07:19:27;;;;;;;10.20;8.00;;;4.00;83.20;;;;;;5035685;28;20290;-65
2023/02/06 07:21:54;;;;;;;11.23;7.93;;;4.10;83.00;;;;;;5041559;28;20212;-65
2023/02/06 07:24:21;;;;;;;14.40;8.93;;;4.20;83.00;;;;;;5038234;28;20484;-65
2023/02/06 07:26:48;;;;;;;11.80;8.20;;;4.50;82.60;;;;;;5040184;28;20256;-65
2023/02/06 07:29:15;;;;;;;12.23;7.20;;;4.80;81.70;;;;;;5034007;28;20203;-65
2023/02/06 07:31:42;;;;;;;12.27;7.03;;;5.20;80.40;;;;;;5038203;28;20197;-65
2023/02/06 07:34:09;;;;;;;10.20;7.43;;;5.60;79.10;;;;;;5034274;28;20230;-65
2023/02/06 07:36:36;;;;;;;9.50;6.37;;;5.90;77.70;;;;;;5042459;28;20267;-65
2023/02/06 07:39:04;;;;;;;11.10;7.60;;;6.30;76.30;;;;;;5035713;28;20235;-65
2023/02/06 07:41:31;;;;;;;8.60;6.67;;;6.60;75.20;;;;;;5029870;28;20200;-65
2023/02/06 07:43:58;;;;;;;10.90;7.20;;;6.90;74.20;;;;;;5036257;28;20253;-66
2023/02/06 07:46:25;;;;;;;8.00;6.67;;;6.90;73.70;;;;;;5040783;28;20214;-66
2023/02/06 07:48:52;;;;;;;11.97;7.43;;;6.70;74.30;;;;;;5032630;28;20207;-66
2023/02/06 07:51:19;;;;;;;10.87;7.00;;;6.40;74.40;;;;;;5041499;28;20539;-66
2023/02/06 07:53:47;;;;;;;12.50;6.73;;;6.30;75.10;;;;;;5040630;28;20592;-65
2023/02/06 07:56:19;;;;;;;7.30;6.27;;;6.30;74.90;;;;;;5037297;28;20530;-65
2023/02/06 07:58:50;;;;;;;7.33;5.40;;;6.30;75.20;;;;;;5034871;28;20206;-66
2023/02/06 08:01:18;;;;;;;8.90;5.70;;;6.40;75.40;;;;;;5039547;28;20207;-65
2023/02/06 08:03:45;;;;;;;11.43;6.53;;;6.40;75.30;;;;;;5035741;28;20252;-66
2023/02/06 08:06:14;;;;;;;9.57;5.53;;;6.50;76.30;;;;;;5034897;28;20277;-65
2023/02/06 08:08:42;;;;;;;9.30;5.60;;;6.70;75.80;;;;;;5038935;28;20210;-65
2023/02/06 08:11:13;;;;;;;8.93;5.83;;;6.90;75.30;;;;;;5027888;28;20206;-65
2023/02/06 08:13:42;;;;;;;9.60;6.57;;;7.00;74.80;;;;;;5037292;28;20648;-66
2023/02/06 08:16:18;;;;;;;8.63;5.93;;;7.10;74.80;;;;;;5041940;28;20211;-65
2023/02/06 08:18:45;;;;;;;9.50;6.13;;;7.20;74.80;;;;;;5040794;28;20201;-66
2023/02/06 08:21:17;;;;;;;9.13;5.27;;;7.30;74.50;;;;;;5038793;28;20535;-66
2023/02/06 08:23:45;;;;;;;12.03;5.20;;;7.30;73.70;;;;;;5037669;28;20213;-66
2023/02/06 08:26:17;;;;;;;6.90;4.80;;;7.40;73.20;;;;;;5036533;28;20214;-65
2023/02/06 08:28:46;;;;;;;13.97;5.80;;;7.20;72.50;;;;;;5033527;28;20206;-65
2023/02/06 08:31:22;;;;;;;12.13;4.93;;;7.20;72.50;;;;;;5038122;28;20619;-65
2023/02/06 08:33:49;;;;;;;6.87;4.43;;;7.10;71.60;;;;;;5025569;28;20195;-66
2023/02/06 08:36:18;;;;;;;8.93;5.27;;;7.00;71.80;;;;;;5040813;28;20299;-65
2023/02/06 08:38:46;;;;;;;8.77;5.20;;;6.90;72.50;;;;;;5035771;28;20527;-67
2023/02/06 08:41:18;;;;;;;11.90;4.93;;;6.90;73.00;;;;;;5037174;28;20332;-65
2023/02/06 08:43:50;;;;;;;7.30;4.93;;;6.90;73.00;;;;;;5037470;28;20533;-65
2023/02/06 08:46:18;;;;;;;7.80;4.63;;;6.90;73.20;;;;;;5041214;28;20220;-65
2023/02/06 08:48:45;;;;;;;5.17;4.40;;;7.00;73.40;;;;;;5038881;28;20621;-65
2023/02/06 08:51:14;;;;;;;11.33;4.27;;;7.20;72.70;;;;;;5031516;28;20602;-65
2023/02/06 08:53:41;;;;;;;7.17;3.80;;;7.30;72.30;;;;;;5032747;28;20200;-66
2023/02/06 08:56:09;;;;;;;7.40;3.80;;;7.50;72.00;;;;;;5032758;28;20255;-65
2023/02/06 08:58:37;;;;;;;6.27;3.77;;;7.50;71.00;;;;;;5035285;28;20685;-65
2023/02/06 09:01:12;;;;;;;6.00;3.60;;;7.50;70.00;;;;;;5037523;28;20524;-64
2023/02/06 09:03:43;;;;;;;5.57;3.87;;;7.50;69.90;;;;;;5032178;28;20200;-63
2023/02/06 09:06:11;;;;;;;7.23;4.33;;;7.60;69.20;;;;;;5030333;28;20323;-65
2023/02/06 09:08:39;;;;;;;5.70;2.83;;;7.70;68.40;;;;;;5041739;28;20273;-65
2023/02/06 09:11:16;;;;;;;8.23;3.20;;;7.80;67.10;;;;;;5036200;28;20226;-65
2023/02/06 09:13:48;;;;;;;3.57;2.63;;;7.90;66.50;;;;;;5038785;28;20208;-63
2023/02/06 09:16:19;;;;;;;3.40;2.70;;;7.90;66.50;;;;;;5031569;28;20223;-64
2023/02/06 09:18:47;;;;;;;4.50;3.00;;;7.90;64.50;;;;;;5035100;28;20202;-63
2023/02/06 09:21:24;;;;;;;6.83;3.50;;;7.80;64.20;;;;;;5031538;28;20685;-65
2023/02/06 09:23:55;;;;;;;6.43;2.80;;;7.70;64.80;;;;;;5034535;28;20206;-65
2023/02/06 09:26:32;;;;;;;5.37;3.00;;;7.60;64.90;;;;;;5030607;28;20220;-67
2023/02/06 09:29:04;;;;;;;5.40;3.10;;;7.50;65.20;;;;;;5032179;28;20281;-63
2023/02/06 09:31:31;;;;;;;7.50;3.50;;;7.40;65.30;;;;;;5035183;28;20200;-66
2023/02/06 09:34:01;;;;;;;6.67;2.73;;;7.30;64.40;;;;;;5041739;28;20195;-65
2023/02/06 09:36:29;;;;;;;3.77;2.97;;;7.20;64.70;;;;;;5038894;28;20213;-66
2023/02/06 09:38:57;;;;;;;4.17;2.73;;;7.30;65.40;;;;;;5034040;28;20624;-65
2023/02/06 09:41:36;;;;;;;6.63;2.77;;;7.40;65.80;;;;;;5041550;28;20249;-66
2023/02/06 09:44:28;;;;;;;5.67;3.17;;;7.50;65.50;;;;;;5032698;28;20253;-64
2023/02/06 09:46:58;;;;;;;8.93;3.03;;;7.60;64.70;;;;;;5034298;28;20228;-64
2023/02/06 09:49:39;;;;;;;3.60;2.70;;;7.70;64.20;;;;;;5031419;28;20231;-64
2023/02/06 09:52:27;;;;;;;5.00;2.93;;;7.80;63.70;;;;;;5031800;28;20199;-63
2023/02/06 09:55:25;;;;;;;4.67;3.00;;;7.80;63.50;;;;;;5036118;28;20535;-65
2023/02/06 09:58:10;;;;;;;7.03;2.97;;;7.90;63.50;;;;;;5027406;28;20239;-63
2023/02/06 10:00:37;;;;;;;10.80;3.43;;;8.00;63.40;;;;;;5032498;28;20194;-65
2023/02/06 10:03:10;;;;;;;9.37;3.67;;;8.00;63.10;;;;;;5042230;28;20249;-65
2023/02/06 10:05:53;;;;;;;8.67;3.23;;;8.10;63.50;;;;;;5029727;28;20743;-63
2023/02/06 10:08:27;;;;;;;5.47;2.90;;;8.20;63.30;;;;;;5057729;28;20292;-63
2023/02/06 10:10:57;;;;;;;6.67;3.10;;;8.30;63.30;;;;;;5039626;28;20207;-65
2023/02/06 10:13:24;;;;;;;10.33;3.10;;;8.40;63.40;;;;;;5031055;28;20217;-64
2023/02/06 10:15:58;;;;;;;7.57;2.83;;;8.50;62.50;;;;;;5040121;28;20243;-63
2023/02/06 10:18:31;;;;;;;3.17;2.60;;;8.50;60.90;;;;;;5022948;28;20206;-65
2023/02/06 10:21:05;;;;;;;8.27;2.70;;;8.50;59.20;;;;;;5029805;28;20212;-64
2023/02/06 10:23:43;;;;;;;5.00;3.07;;;8.50;60.00;;;;;;5032981;28;20683;-65
2023/02/06 10:26:16;;;;;;;3.73;2.53;;;8.50;60.10;;;;;;5044759;28;20214;-65
2023/02/06 10:28:48;;;;;;;3.97;2.43;;;8.50;60.00;;;;;;5044210;28;20208;-64
2023/02/06 10:31:20;;;;;;;2.87;2.53;;;8.50;59.10;;;;;;5032560;28;20559;-63
2023/02/06 10:34:14;;;;;;;5.40;3.43;;;8.60;60.10;;;;;;5042146;28;20207;-64
2023/02/06 10:36:55;;;;;;;5.23;2.67;;;8.70;60.20;;;;;;5033861;28;20203;-63
2023/02/06 10:39:43;;;;;;;5.60;2.90;;;8.70;59.40;;;;;;5037257;28;20204;-64
2023/02/06 10:42:32;;;;;;;8.17;4.00;;;8.80;59.10;;;;;;5036722;28;20211;-65
2023/02/06 10:45:02;;;;;;;5.50;3.00;;;8.80;59.10;;;;;;5031710;28;20539;-65
2023/02/06 10:47:57;;;;;;;4.90;2.63;;;8.90;59.00;;;;;;5033925;28;20230;-64
2023/02/06 10:50:33;;;;;;;8.53;3.37;;;9.00;59.40;;;;;;5040828;28;20195;-63
2023/02/06 10:53:10;;;;;;;6.43;2.97;;;9.00;58.70;;;;;;5032693;28;20195;-64
2023/02/06 10:55:50;;;;;;;7.30;3.33;;;9.10;58.40;;;;;;5040114;28;20198;-64
2023/02/06 10:58:51;;;;;;;4.13;2.77;;;9.10;58.60;;;;;;5032940;28;20214;-64
2023/02/06 11:01:21;;;;;;;5.17;2.63;;;9.10;58.00;;;;;;5035850;28;20225;-65
2023/02/06 11:04:09;;;;;;;7.50;2.97;;;9.20;58.00;;;;;;5037731;28;20545;-64
2023/02/06 11:06:38;;;;;;;6.77;3.20;;;9.30;57.70;;;;;;5033049;28;20248;-63
2023/02/06 11:09:06;;;;;;;2.93;2.43;;;9.30;57.30;;;;;;5039019;28;20542;-62
2023/02/06 11:11:39;;;;;;;16.50;3.50;;;9.30;56.90;;;;;;5036085;28;20194;-63
2023/02/06 11:14:21;;;;;;;2.97;2.27;;;9.40;57.50;;;;;;5035327;28;20512;-65
2023/02/06 11:16:51;;;;;;;3.33;2.53;;;9.50;56.30;;;;;;5037547;28;20207;-65
2023/02/06 11:19:26;;;;;;;4.97;2.93;;;9.50;56.20;;;;;;5037706;28;20197;-64
2023/02/06 11:21:53;;;;;;;3.60;2.40;;;9.60;55.80;;;;;;5040410;28;20213;-65
2023/02/06 11:24:23;;;;;;;4.67;2.60;;;9.60;55.80;;;;;;5036447;28;20638;-64
2023/02/06 11:26:59;;;;;;;3.87;2.30;;;9.70;55.80;;;;;;5041004;28;20213;-64
2023/02/06 11:29:47;;;;;;;3.47;2.77;;;9.70;55.20;;;;;;5037920;28;20311;-64
2023/02/06 11:32:42;;;;;;;7.03;2.67;;;9.80;54.50;;;;;;5038212;28;20245;-63
2023/02/06 11:35:38;;;;;;;3.37;2.67;;;9.80;54.40;;;;;;5038267;28;20704;-63
2023/02/06 11:38:28;;;;;;;6.57;2.90;;;9.90;54.40;;;;;;5033143;28;20314;-63
2023/02/06 11:40:55;;;;;;;3.23;2.47;;;9.90;54.00;;;;;;5033318;28;20202;-65
2023/02/06 11:43:43;;;;;;;6.43;3.43;;;9.90;53.70;;;;;;5035061;28;20217;-65
2023/02/06 11:46:10;;;;;;;4.33;3.70;;;9.90;54.90;;;;;;5029831;28;20223;-66
2023/02/06 11:48:40;;;;;;;9.50;3.10;;;9.90;54.50;;;;;;5039285;28;20646;-63
2023/02/06 11:51:08;;;;;;;7.33;3.00;;;10.00;53.70;;;;;;5040337;28;20221;-64
2023/02/06 11:53:36;;;;;;;4.83;3.40;;;10.20;53.50;;;;;;5036898;28;20269;-63
2023/02/06 11:56:14;;;;;;;7.13;3.67;;;10.30;54.20;;;;;;5037105;28;20212;-64
2023/02/06 11:58:42;;;;;;;5.30;3.57;;;10.40;53.60;;;;;;5042363;28;20202;-63
2023/02/06 12:01:18;;;;;;;7.90;3.43;;;10.40;53.90;;;;;;5034417;28;20269;-65
2023/02/06 12:03:48;;;;;;;8.97;3.43;;;10.30;53.90;;;;;;5030135;28;20365;-65
2023/02/06 12:06:32;;;;;;;7.93;3.47;;;10.10;52.80;;;;;;5037546;28;20245;-64
2023/02/06 12:09:02;;;;;;;6.10;3.30;;;9.90;54.20;;;;;;5028919;28;20627;-65
2023/02/06 12:11:45;;;;;;;4.97;3.20;;;9.80;55.10;;;;;;5033613;28;20197;-63
2023/02/06 12:14:15;;;;;;;5.90;4.07;;;9.60;55.30;;;;;;5040949;28;20532;-64
2023/02/06 12:16:45;;;;;;;4.57;3.27;;;9.50;55.80;;;;;;5040321;28;20714;-64
2023/02/06 12:19:20;;;;;;;4.87;3.17;;;9.40;56.20;;;;;;5040243;28;20209;-65
2023/02/06 12:21:54;;;;;;;6.67;3.33;;;9.30;56.30;;;;;;5036168;28;20198;-64
2023/02/06 12:24:39;;;;;;;6.13;3.10;;;9.20;56.40;;;;;;5034903;28;20593;-64
2023/02/06 12:27:21;;;;;;;6.43;2.83;;;9.20;56.60;;;;;;5036225;28;20285;-64
2023/02/06 12:30:18;;;;;;;6.90;3.47;;;9.10;56.50;;;;;;5039552;28;20264;-64
2023/02/06 12:32:49;;;;;;;6.03;4.13;;;9.10;57.30;;;;;;5033926;28;20215;-64
2023/02/06 12:35:58;;;;;;;5.70;3.40;;;9.10;57.10;;;;;;5035193;28;20199;-65
2023/02/06 12:38:49;;;;;;;6.87;2.60;;;9.00;57.10;;;;;;5037811;28;20247;-65
2023/02/06 12:41:46;;;;;;;5.53;3.30;;;8.90;56.70;;;;;;5040242;28;20206;-65
2023/02/06 12:44:43;;;;;;;4.43;2.73;;;8.90;56.70;;;;;;5040282;28;20298;-65
2023/02/06 12:47:13;;;;;;;3.10;2.83;;;8.90;56.70;;;;;;5036481;28;20629;-64
2023/02/06 12:50:17;;;;;;;5.13;2.80;;;8.80;57.40;;;;;;5037602;28;20267;-64
2023/02/06 12:52:50;;;;;;;3.00;2.20;;;8.80;57.70;;;;;;5034135;28;20215;-64
2023/02/06 12:55:26;;;;;;;6.93;2.83;;;8.70;57.70;;;;;;5034546;28;20204;-65
2023/02/06 12:57:54;;;;;;;2.97;2.27;;;8.70;57.60;;;;;;5032593;28;20206;-64
2023/02/06 13:00:37;;;;;;;3.10;2.80;;;8.60;58.20;;;;;;5036890;28;20204;-64
2023/02/06 13:03:31;;;;;;;4.43;2.33;;;8.60;58.70;;;;;;5029125;28;20593;-64
2023/02/06 13:06:21;;;;;;;4.33;2.70;;;8.50;58.50;;;;;;5036851;28;20234;-65
2023/02/06 13:08:54;;;;;;;2.83;2.40;;;8.50;58.80;;;;;;5040131;28;20216;-65
2023/02/06 13:11:37;;;;;;;3.53;2.40;;;8.40;58.70;;;;;;5036433;28;20610;-65
2023/02/06 13:14:20;;;;;;;2.53;2.33;;;8.30;59.20;;;;;;5040361;28;20234;-65
2023/02/06 13:17:11;;;;;;;3.53;1.97;;;8.30;59.70;;;;;;5032202;28;20195;-65